Time;durP1;ratioP1;P1;durP2;ratioP2;P2;SDS_P1;SDS_P2;PMS_P1;PMS_P2;Temp;Humidity;BMP_temperature;BMP_pressure;BME280_temperature;BME280_humidity;BME280_pressure;Samples;Min_cycle;Max_cycle;Signal;HPM_P1;HPM_P2
2022/12/27 00:02:03;;;;;;;13.90;10.93;;;;;;;9.07;100.00;100211.27;1767124;80;25898;-80
2022/12/27 00:04:30;;;;;;;15.60;11.43;;;;;;;9.09;100.00;100216.41;1761587;80;27441;-79
2022/12/27 00:06:56;;;;;;;14.93;10.75;;;;;;;9.08;100.00;100224.13;1766404;80;25730;-80
2022/12/27 00:09:23;;;;;;;17.50;11.50;;;;;;;9.06;100.00;100210.96;1763334;80;25855;-79
2022/12/27 00:11:49;;;;;;;14.43;11.12;;;;;;;9.05;100.00;100211.96;1764272;80;26197;-80
2022/12/27 00:14:16;;;;;;;13.62;10.45;;;;;;;9.06;100.00;100212.80;1766095;80;25672;-80
2022/12/27 00:16:42;;;;;;;15.25;10.90;;;;;;;9.06;100.00;100212.80;1771704;78;27420;-80
2022/12/27 00:19:08;;;;;;;13.55;10.28;;;;;;;9.05;100.00;100215.97;1778787;80;25861;-80
2022/12/27 00:21:35;;;;;;;14.47;10.98;;;;;;;9.03;100.00;100207.81;1759198;80;25971;-79
2022/12/27 00:24:02;;;;;;;18.87;13.48;;;;;;;9.05;100.00;100212.46;1753758;81;25868;-80
2022/12/27 00:26:31;;;;;;;18.00;11.35;;;;;;;9.07;100.00;100213.10;1754041;81;25819;-80
2022/12/27 00:28:58;;;;;;;13.18;10.38;;;;;;;9.09;100.00;100211.07;1755859;80;28260;-80
2022/12/27 00:31:28;;;;;;;14.10;10.05;;;;;;;9.10;100.00;100211.41;1753285;81;25850;-80
2022/12/27 00:33:59;;;;;;;12.68;9.28;;;;;;;9.11;100.00;100222.43;1735560;80;25716;-79
2022/12/27 00:36:28;;;;;;;13.28;9.03;;;;;;;9.13;100.00;100227.88;1781089;79;26409;-80
2022/12/27 00:38:57;;;;;;;14.85;9.48;;;;;;;9.14;100.00;100228.22;1763482;80;25831;-80
2022/12/27 00:41:24;;;;;;;12.90;8.93;;;;;;;9.15;100.00;100217.03;1783039;79;28249;-80
2022/12/27 00:43:50;;;;;;;10.72;7.97;;;;;;;9.15;100.00;100215.16;1769163;80;25735;-80
2022/12/27 00:46:18;;;;;;;10.45;7.47;;;;;;;9.17;100.00;100219.00;1767720;80;26054;-80
2022/12/27 00:48:44;;;;;;;12.73;8.73;;;;;;;9.19;100.00;100215.14;1763409;80;25756;-79
2022/12/27 00:51:18;;;;;;;12.60;7.78;;;;;;;9.20;100.00;100215.94;1764779;79;25814;-80
2022/12/27 00:53:46;;;;;;;11.65;8.03;;;;;;;9.19;100.00;100223.16;1761024;79;28261;-82
2022/12/27 00:56:21;;;;;;;11.63;7.50;;;;;;;9.20;100.00;100222.63;1726725;79;45320;-79
2022/12/27 00:58:53;;;;;;;12.05;7.00;;;;;;;9.21;100.00;100232.31;1770253;79;25772;-79
2022/12/27 01:01:23;;;;;;;12.07;7.37;;;;;;;9.19;100.00;100223.66;1757624;81;27070;-80
2022/12/27 01:03:51;;;;;;;12.13;7.03;;;;;;;9.19;100.00;100221.82;1764621;81;25837;-79
2022/12/27 01:06:21;;;;;;;10.03;6.65;;;;;;;9.23;100.00;100223.59;1756299;79;27438;-79
2022/12/27 01:08:49;;;;;;;9.30;6.90;;;;;;;9.24;100.00;100214.55;1757774;79;26399;-79
2022/12/27 01:11:18;;;;;;;14.55;7.92;;;;;;;9.23;100.00;100214.24;1764642;79;25789;-79
2022/12/27 01:13:45;;;;;;;10.05;6.22;;;;;;;9.20;100.00;100208.77;1759325;79;25815;-79
2022/12/27 01:16:21;;;;;;;9.83;6.58;;;;;;;9.20;100.00;100211.94;1764953;79;26232;-79
2022/12/27 01:18:48;;;;;;;9.88;6.55;;;;;;;9.19;100.00;100199.61;1777125;78;28648;-79
2022/12/27 01:21:18;;;;;;;10.05;6.67;;;;;;;9.17;100.00;100204.31;1744131;80;26644;-79
2022/12/27 01:23:45;;;;;;;11.53;7.03;;;;;;;9.14;100.00;100205.51;1745748;81;25768;-79
2022/12/27 01:26:16;;;;;;;9.58;6.28;;;;;;;9.12;100.00;100210.71;1764497;80;26140;-79
2022/12/27 01:28:43;;;;;;;9.83;7.00;;;;;;;9.10;100.00;100194.88;1743231;81;25931;-79
2022/12/27 01:31:13;;;;;;;10.80;6.72;;;;;;;9.10;100.00;100199.38;1781624;79;27389;-79
2022/12/27 01:33:40;;;;;;;13.65;7.60;;;;;;;9.10;100.00;100203.39;1764707;80;25789;-79
2022/12/27 01:36:20;;;;;;;9.75;6.45;;;;;;;9.08;100.00;100197.41;1783341;78;25802;-79
2022/12/27 01:38:47;;;;;;;8.95;6.78;;;;;;;9.08;100.00;100198.24;1739020;80;26560;-80
2022/12/27 01:44:42;;;;;;;9.88;6.53;;;;;;;9.06;100.00;100207.45;1749559;80;27474;-80
2022/12/27 01:47:35;;;;;;;8.60;7.10;;;;;;;9.05;100.00;100211.96;1748237;80;25694;-79
2022/12/27 01:50:16;;;;;;;11.38;7.72;;;;;;;9.03;100.00;100217.16;1752966;80;25827;-79
2022/12/27 01:52:53;;;;;;;12.28;8.10;;;;;;;9.04;100.00;100222.84;1749616;81;25812;-80
2022/12/27 01:55:31;;;;;;;10.23;7.58;;;;;;;9.02;100.00;100225.71;1748342;81;25957;-79
2022/12/27 01:58:06;;;;;;;9.25;7.05;;;;;;;9.02;100.00;100217.70;1746449;80;27475;-79
2022/12/27 02:00:32;;;;;;;8.38;6.95;;;;;;;9.02;100.00;100223.53;1751527;80;25830;-80
2022/12/27 02:03:02;;;;;;;10.28;7.28;;;;;;;9.01;100.00;100222.70;1755612;80;25780;-80
2022/12/27 02:05:29;;;;;;;8.28;7.25;;;;;;;9.03;100.00;100221.17;1722369;81;26604;-79
2022/12/27 02:08:19;;;;;;;11.12;7.30;;;;;;;9.05;100.00;100228.49;1758812;79;25765;-79
2022/12/27 02:10:47;;;;;;;11.65;7.45;;;;;;;9.03;100.00;100224.67;1760276;79;28121;-79
2022/12/27 02:13:15;;;;;;;10.40;6.78;;;;;;;9.03;100.00;100220.67;1766470;79;26169;-79
2022/12/27 02:15:41;;;;;;;10.88;7.37;;;;;;;9.00;100.00;100222.36;1785887;78;26098;-79
2022/12/27 02:18:08;;;;;;;9.80;7.10;;;;;;;8.99;100.00;100223.89;1757727;80;26265;-79
2022/12/27 02:20:52;;;;;;;11.43;7.55;;;;;;;8.99;100.00;100223.89;1773947;78;26260;-79
2022/12/27 02:24:07;;;;;;;12.15;7.87;;;;;;;8.97;100.00;100223.25;1758087;80;27552;-79
2022/12/27 02:27:01;;;;;;;10.65;7.75;;;;;;;8.94;100.00;100223.64;1747897;80;25914;-80
2022/12/27 02:29:51;;;;;;;11.75;8.50;;;;;;;8.91;100.00;100225.34;1757424;80;25702;-80
2022/12/27 02:32:31;;;;;;;10.38;6.85;;;;;;;8.89;100.00;100220.69;1762423;78;25819;-79
2022/12/27 02:35:21;;;;;;;11.77;8.03;;;;;;;8.86;100.00;100226.39;1777518;78;25934;-80
2022/12/27 02:37:57;;;;;;;12.68;9.00;;;;;;;8.84;100.00;100228.41;1753648;79;27544;-80
2022/12/27 02:55:30;;;;;;;10.18;5.65;;;;;;;8.60;100.00;100254.06;1769349;78;25848;-80
2022/12/27 02:58:31;;;;;;;11.12;3.70;;;;;;;8.34;100.00;100310.52;1749668;80;26004;-79
2022/12/27 03:04:42;;;;;;;4.00;1.67;;;;;;;7.80;99.66;100327.84;1756303;80;26178;-80
2022/12/27 03:07:23;;;;;;;1.95;1.22;;;;;;;7.53;98.13;100354.97;1775315;79;27447;-80
2022/12/27 03:16:09;;;;;;;4.67;1.20;;;;;;;6.80;96.81;100388.95;1762077;79;26403;-79
2022/12/27 03:19:05;;;;;;;3.92;1.57;;;;;;;6.66;96.82;100393.63;1764170;79;26516;-79
2022/12/27 03:27:28;;;;;;;5.97;1.30;;;;;;;6.38;97.04;100394.94;1768445;80;25298;-79
2022/12/27 03:33:12;;;;;;;6.45;1.12;;;;;;;6.26;97.41;100412.70;1768994;78;25793;-79
2022/12/27 03:38:52;;;;;;;4.50;0.93;;;;;;;6.28;98.43;100412.88;1762076;79;25950;-80
2022/12/27 03:44:23;;;;;;;4.80;0.98;;;;;;;6.37;98.52;100426.54;1765922;79;25452;-80
2022/12/27 03:47:13;;;;;;;5.03;1.12;;;;;;;6.39;98.41;100437.01;1772278;78;25817;-80
2022/12/27 03:49:54;;;;;;;5.28;0.75;;;;;;;6.40;98.33;100434.66;1745774;80;27424;-80
2022/12/27 03:52:40;;;;;;;3.75;0.85;;;;;;;6.39;98.31;100432.53;1783235;78;25910;-80
2022/12/27 03:55:08;;;;;;;5.53;1.05;;;;;;;6.38;97.78;100437.98;1760812;79;25570;-80
2022/12/27 03:57:34;;;;;;;6.37;1.40;;;;;;;6.30;97.15;100442.81;1769024;79;25661;-80
2022/12/27 04:00:01;;;;;;;9.55;1.40;;;;;;;6.28;97.10;100454.60;1770592;79;25911;-80
2022/12/27 04:02:27;;;;;;;7.40;1.50;;;;;;;6.23;96.74;100451.94;1775130;79;27572;-80
2022/12/27 04:04:54;;;;;;;5.00;1.35;;;;;;;6.17;96.16;100465.89;1774575;79;26072;-80
2022/12/27 04:07:20;;;;;;;5.22;1.30;;;;;;;6.12;96.16;100462.03;1744180;80;25820;-80
2022/12/27 04:34:42;;;;;;;7.95;1.42;;;;;;;5.84;94.52;100513.26;1747239;80;26385;-80
2022/12/27 04:37:18;;;;;;;7.65;2.05;;;;;;;5.86;94.82;100518.44;1754579;80;26363;-80
2022/12/27 04:56:16;;;;;;;8.98;2.10;;;;;;;5.80;94.39;100552.23;1770072;78;27506;-80
2022/12/27 05:02:02;;;;;;;7.87;1.32;;;;;;;5.77;93.93;100555.23;1781405;78;25857;-80
2022/12/27 05:03:55;;;;;;;8.30;2.00;;;;;;;5.66;93.54;100557.66;1784957;78;25472;-80
2022/12/27 05:06:21;;;;;;;6.87;1.10;;;;;;;5.60;93.36;100564.09;1789133;79;25845;-80
2022/12/27 05:14:17;;;;;;;4.87;1.65;;;;;;;5.46;93.01;100574.77;1781677;78;25801;-80
2022/12/27 05:16:44;;;;;;;9.90;1.57;;;;;;;5.40;92.91;100580.70;1761529;80;26711;-80
2022/12/27 05:19:13;;;;;;;12.45;1.87;;;;;;;5.33;92.58;100585.79;1757999;81;25815;-80
2022/12/27 05:27:13;;;;;;;7.58;1.30;;;;;;;5.24;92.53;100594.67;1774452;80;25850;-81
2022/12/27 05:29:39;;;;;;;6.90;2.00;;;;;;;5.26;92.76;100597.20;1768902;80;26287;-80
2022/12/27 05:32:05;;;;;;;6.60;1.60;;;;;;;5.26;92.57;100603.31;1767998;79;25951;-80
2022/12/27 05:34:32;;;;;;;6.22;1.50;;;;;;;5.24;92.43;100602.63;1770566;79;27470;-80
2022/12/27 05:36:58;;;;;;;12.45;3.15;;;;;;;5.25;92.50;100615.42;1765563;79;26196;-80
2022/12/27 05:39:24;;;;;;;10.45;2.20;;;;;;;5.24;92.32;100617.73;1769261;79;26013;-80
2022/12/27 05:41:51;;;;;;;9.33;2.40;;;;;;;5.23;92.28;100616.08;1771873;79;26225;-80
2022/12/27 05:44:17;;;;;;;18.65;3.87;;;;;;;5.22;92.31;100624.53;1767455;79;25962;-80
2022/12/27 05:46:43;;;;;;;13.62;2.02;;;;;;;5.22;92.05;100627.67;1773486;79;27452;-80
2022/12/27 05:51:32;;;;;;;9.13;2.75;;;;;;;5.22;91.66;100630.33;1831447;77;25628;-79
2022/12/27 05:53:58;;;;;;;5.53;1.87;;;;;;;5.14;91.78;100641.72;1802049;78;25757;-79
2022/12/27 05:56:24;;;;;;;8.88;2.00;;;;;;;5.14;91.75;100642.20;1813421;78;27604;-79
2022/12/27 05:58:54;;;;;;;10.25;2.00;;;;;;;5.13;91.53;100646.67;1811605;78;25822;-79
2022/12/27 06:01:21;;;;;;;11.22;1.98;;;;;;;5.05;91.11;100646.59;1813960;78;25788;-80
2022/12/27 06:03:47;;;;;;;6.70;1.60;;;;;;;5.01;91.08;100651.02;1812485;78;25892;-79
2022/12/27 06:06:13;;;;;;;18.30;3.17;;;;;;;4.95;91.14;100651.63;1813830;78;25776;-79
2022/12/27 06:08:40;;;;;;;13.05;2.37;;;;;;;4.92;91.12;100646.63;1814996;78;27438;-79
2022/12/27 06:11:12;;;;;;;8.03;1.87;;;;;;;4.88;91.13;100656.69;1817048;78;25853;-80
2022/12/27 06:13:40;;;;;;;10.78;1.87;;;;;;;4.87;91.15;100657.69;1821391;78;26342;-79
2022/12/27 06:16:10;;;;;;;9.75;2.58;;;;;;;4.84;91.29;100657.98;1814438;78;25863;-79
2022/12/27 06:18:39;;;;;;;11.63;3.02;;;;;;;4.81;91.30;100664.09;1814888;78;26005;-79
2022/12/27 06:21:09;;;;;;;14.53;1.95;;;;;;;4.79;91.30;100666.86;1815632;78;27312;-79
2022/12/27 06:23:38;;;;;;;9.90;1.85;;;;;;;4.79;91.38;100671.36;1812780;78;26438;-79
2022/12/27 06:26:14;;;;;;;10.95;2.05;;;;;;;4.74;91.17;100669.14;1812996;78;26374;-79
2022/12/27 06:28:40;;;;;;;9.48;1.87;;;;;;;4.68;91.20;100674.53;1810941;78;25895;-80
2022/12/27 06:31:09;;;;;;;8.05;2.08;;;;;;;4.65;91.32;100685.94;1817563;78;26757;-80
2022/12/27 06:33:37;;;;;;;13.53;2.40;;;;;;;4.60;91.32;100686.38;1800968;78;27464;-79
2022/12/27 06:36:09;;;;;;;16.00;2.67;;;;;;;4.57;91.40;100688.02;1801827;78;25813;-79
2022/12/27 06:38:36;;;;;;;8.83;2.52;;;;;;;4.56;91.60;100696.09;1804574;78;25892;-80
2022/12/27 06:41:09;;;;;;;16.27;4.65;;;;;;;4.55;91.71;100701.91;1798626;78;26572;-80
2022/12/27 06:43:36;;;;;;;17.25;2.80;;;;;;;4.56;91.92;100704.05;1800117;78;32522;-80
2022/12/27 06:46:06;;;;;;;10.82;2.62;;;;;;;4.56;91.85;100707.55;1803088;78;27559;-80
2022/12/27 06:48:32;;;;;;;10.95;2.08;;;;;;;4.58;91.89;100719.33;1818399;77;25882;-80
2022/12/27 06:51:02;;;;;;;12.15;2.10;;;;;;;4.58;92.02;100720.17;1815617;78;26706;-80
2022/12/27 06:53:29;;;;;;;14.27;2.97;;;;;;;4.59;92.01;100724.52;1804548;79;25800;-80
2022/12/27 06:55:55;;;;;;;6.87;2.33;;;;;;;4.59;92.12;100727.65;1804091;78;25817;-79
2022/12/27 06:58:21;;;;;;;11.35;3.20;;;;;;;4.63;92.33;100735.66;1789270;79;27428;-80
2022/12/27 07:00:48;;;;;;;13.72;3.50;;;;;;;4.61;92.12;100741.13;1791892;78;25892;-79
2022/12/27 07:03:14;;;;;;;17.67;4.65;;;;;;;4.62;92.29;100740.12;1790965;79;25939;-80
2022/12/27 07:05:40;;;;;;;16.52;4.47;;;;;;;4.61;92.25;100749.56;1804479;78;26373;-79
2022/12/27 07:08:06;;;;;;;14.47;3.00;;;;;;;4.62;92.27;100753.87;1806950;79;25902;-80
2022/12/27 07:10:35;;;;;;;8.13;2.72;;;;;;;4.64;92.37;100756.73;1810076;79;27415;-79
2022/12/27 07:13:01;;;;;;;13.98;3.62;;;;;;;4.65;92.38;100762.87;1797702;78;26114;-80
2022/12/27 07:15:27;;;;;;;12.95;3.25;;;;;;;4.64;92.27;100763.36;1798196;78;25744;-80
2022/12/27 07:17:53;;;;;;;17.00;3.08;;;;;;;4.61;92.29;100773.44;1792060;79;26537;-80
2022/12/27 07:20:20;;;;;;;13.85;2.75;;;;;;;4.60;92.24;100777.05;1795494;79;25991;-79
2022/12/27 07:22:46;;;;;;;12.15;2.55;;;;;;;4.57;92.50;100766.27;1811412;77;27505;-80
2022/12/27 07:25:12;;;;;;;13.53;2.92;;;;;;;4.58;92.57;100775.04;1785950;78;25813;-79
2022/12/27 07:27:39;;;;;;;11.83;2.65;;;;;;;4.57;92.62;100781.34;1790543;78;25694;-80
2022/12/27 07:30:07;;;;;;;13.22;2.87;;;;;;;4.57;92.55;100784.84;1794288;79;26471;-80
2022/12/27 07:32:33;;;;;;;13.72;2.80;;;;;;;4.58;92.83;100786.50;1798072;78;25975;-79
2022/12/27 07:35:00;;;;;;;13.90;3.40;;;;;;;4.60;92.89;100798.28;1795517;79;27452;-79
2022/12/27 07:37:26;;;;;;;22.55;3.58;;;;;;;4.62;93.10;100802.47;1800999;78;25636;-80
2022/12/27 07:39:53;;;;;;;12.73;2.95;;;;;;;4.66;92.99;100808.34;1794215;79;25563;-79
2022/12/27 07:42:19;;;;;;;17.37;3.37;;;;;;;4.64;93.00;100811.63;1790584;79;25984;-80
2022/12/27 07:44:47;;;;;;;15.78;4.80;;;;;;;4.64;92.96;100819.08;1795201;79;26738;-80
2022/12/27 07:47:13;;;;;;;11.30;3.15;;;;;;;4.62;93.09;100818.39;1798053;79;28303;-80
2022/12/27 07:49:40;;;;;;;15.40;4.03;;;;;;;4.61;93.34;100815.89;1803451;78;26134;-79
2022/12/27 07:52:06;;;;;;;11.55;3.15;;;;;;;4.65;93.52;100821.25;1839440;77;25843;-80
2022/12/27 07:54:32;;;;;;;11.50;3.10;;;;;;;4.66;93.49;100821.61;1836557;77;26508;-80
2022/12/27 07:56:58;;;;;;;17.07;4.35;;;;;;;4.67;93.59;100828.58;1795385;77;25797;-80
2022/12/27 07:59:26;;;;;;;13.68;2.95;;;;;;;4.67;93.55;100837.37;1760321;80;27444;-79
2022/12/27 08:02:04;;;;;;;14.73;3.65;;;;;;;4.68;93.64;100832.40;1799962;78;25719;-80
2022/12/27 08:04:34;;;;;;;12.60;5.25;;;;;;;4.70;93.94;100837.58;1794407;78;26012;-80
2022/12/27 08:07:14;;;;;;;20.57;8.63;;;;;;;4.76;93.73;100842.31;1776115;79;26009;-77
2022/12/27 08:09:44;;;;;;;52.37;25.53;;;;;;;4.74;93.64;100840.30;1782358;79;25592;-76
2022/12/27 08:12:12;;;;;;;41.00;16.60;;;;;;;4.73;93.61;100841.27;1773568;78;28828;-76
2022/12/27 08:14:39;;;;;;;41.55;15.95;;;;;;;4.75;93.80;100844.61;1788340;79;25862;-76
2022/12/27 08:17:24;;;;;;;20.05;6.85;;;;;;;4.78;93.93;100842.16;1799809;78;25998;-76
2022/12/27 08:19:52;;;;;;;29.82;7.75;;;;;;;4.81;93.98;100843.21;1779049;79;26595;-78
2022/12/27 08:22:19;;;;;;;19.00;6.55;;;;;;;4.82;93.86;100852.34;1772923;78;25778;-78
2022/12/27 08:24:45;;;;;;;19.30;6.90;;;;;;;4.84;93.89;100851.72;1784631;79;28308;-76
2022/12/27 08:27:12;;;;;;;14.15;5.45;;;;;;;4.88;94.09;100854.42;1787466;79;25958;-82
2022/12/27 08:29:38;;;;;;;15.53;5.35;;;;;;;4.91;93.87;100858.61;1788488;79;25774;-82
2022/12/27 08:32:05;;;;;;;12.63;4.58;;;;;;;4.91;93.76;100864.77;1768936;79;26119;-82
2022/12/27 08:34:31;;;;;;;18.75;5.28;;;;;;;4.93;93.89;100872.58;1774335;79;25783;-83
2022/12/27 08:36:59;;;;;;;18.80;5.62;;;;;;;4.96;93.92;100877.09;1784264;79;27308;-84
2022/12/27 08:39:26;;;;;;;38.98;16.17;;;;;;;4.99;93.86;100878.14;1780835;79;26504;-82
2022/12/27 08:41:53;;;;;;;27.67;13.40;;;;;;;5.01;93.85;100888.13;1784569;78;25818;-82
2022/12/27 08:44:19;;;;;;;27.50;14.78;;;;;;;5.03;93.86;100886.65;1779118;79;25867;-83
2022/12/27 08:46:46;;;;;;;17.80;5.47;;;;;;;5.08;93.99;100893.70;1782058;79;25299;-82
2022/12/27 08:49:12;;;;;;;20.10;6.90;;;;;;;5.08;93.70;100891.05;1780715;79;28307;-79
2022/12/27 08:51:38;;;;;;;12.00;5.33;;;;;;;5.09;93.76;100888.75;1801028;78;25810;-79
2022/12/27 08:54:05;;;;;;;15.98;6.08;;;;;;;5.09;93.89;100890.89;1819522;77;25852;-79
2022/12/27 08:56:31;;;;;;;18.37;4.40;;;;;;;5.10;93.94;100888.59;1823547;78;26293;-79
2022/12/27 08:58:58;;;;;;;19.65;6.20;;;;;;;5.14;94.01;100896.62;1816711;78;26369;-78
2022/12/27 09:01:24;;;;;;;10.03;3.98;;;;;;;5.15;93.99;100903.62;1816796;78;27524;-79
2022/12/27 09:03:51;;;;;;;18.75;6.70;;;;;;;5.18;93.99;100897.16;1820003;78;25840;-80
2022/12/27 09:06:21;;;;;;;17.57;6.85;;;;;;;5.18;93.79;100907.77;1807893;78;25895;-79
2022/12/27 09:08:50;;;;;;;19.03;5.80;;;;;;;5.18;94.00;100899.80;1807798;78;26808;-80
2022/12/27 09:11:23;;;;;;;20.12;8.05;;;;;;;5.22;94.09;100895.88;1792582;78;25548;-79
2022/12/27 09:13:50;;;;;;;16.07;5.62;;;;;;;5.24;94.03;100898.73;1812972;78;27441;-79
2022/12/27 09:16:21;;;;;;;16.02;8.50;;;;;;;5.25;93.93;100892.95;1821524;78;25989;-79
2022/12/27 09:18:51;;;;;;;20.85;6.78;;;;;;;5.29;94.30;100896.50;1816530;78;25832;-79
2022/12/27 09:21:19;;;;;;;25.92;8.75;;;;;;;5.33;94.25;100893.05;1803992;78;25963;-79
2022/12/27 09:23:47;;;;;;;17.67;7.03;;;;;;;5.33;94.20;100905.84;1812041;77;25895;-77
2022/12/27 09:26:20;;;;;;;30.55;13.80;;;;;;;5.36;94.19;100907.38;1818414;78;27809;-78
2022/12/27 09:28:48;;;;;;;25.35;11.48;;;;;;;5.34;93.94;100906.20;1806266;78;25813;-77
2022/12/27 09:31:18;;;;;;;22.07;10.68;;;;;;;5.38;94.35;100904.08;1816904;78;26444;-83
2022/12/27 09:33:45;;;;;;;13.40;7.47;;;;;;;5.39;94.09;100912.38;1821182;78;25899;-83
2022/12/27 09:36:15;;;;;;;20.55;6.75;;;;;;;5.40;94.37;100908.75;1814423;78;25873;-85
2022/12/27 09:38:42;;;;;;;23.32;8.68;;;;;;;5.43;94.07;100904.49;1817371;78;27381;-81
2022/12/27 09:41:29;;;;;;;18.27;6.97;;;;;;;5.44;94.17;100908.80;1806810;78;26398;-82
2022/12/27 09:44:13;;;;;;;21.73;9.63;;;;;;;5.47;94.03;100917.83;1805280;78;26462;-83
2022/12/27 09:46:48;;;;;;;36.03;15.15;;;;;;;5.47;94.12;100918.63;1818190;78;25903;-82
2022/12/27 09:49:20;;;;;;;28.52;14.25;;;;;;;5.48;94.05;100916.83;1810928;78;25989;-81
2022/12/27 09:51:54;;;;;;;18.45;10.35;;;;;;;5.50;94.12;100917.52;1817498;78;27465;-81
2022/12/27 09:54:44;;;;;;;21.55;7.62;;;;;;;5.48;93.73;100926.97;1817121;78;25788;-82
2022/12/27 09:57:18;;;;;;;25.12;17.57;;;;;;;5.49;93.69;100930.47;1806094;78;25956;-82
2022/12/27 09:59:48;;;;;;;25.48;14.90;;;;;;;5.47;93.64;100931.92;1821850;78;26306;-81
2022/12/27 10:02:22;;;;;;;13.43;7.40;;;;;;;5.45;93.51;100931.74;1813540;78;25770;-81
2022/12/27 10:04:50;;;;;;;14.28;7.53;;;;;;;5.43;93.24;100922.56;1810327;78;27675;-82
2022/12/27 10:07:54;;;;;;;14.60;7.62;;;;;;;5.43;93.14;100930.54;1811521;78;25863;-81
2022/12/27 10:10:41;;;;;;;23.95;9.30;;;;;;;5.43;92.92;100929.73;1817474;78;26051;-78
2022/12/27 10:13:48;;;;;;;20.10;9.98;;;;;;;5.41;92.97;100921.03;1820371;78;26760;-85
2022/12/27 10:16:26;;;;;;;19.05;8.98;;;;;;;5.42;92.79;100925.38;1808007;78;25908;-84
2022/12/27 10:19:22;;;;;;;28.42;18.23;;;;;;;5.43;92.73;100928.40;1814085;78;27477;-83
2022/12/27 10:22:06;;;;;;;34.18;20.27;;;;;;;5.46;92.80;100933.41;1810887;78;25966;-83
2022/12/27 10:24:49;;;;;;;25.85;12.88;;;;;;;5.52;93.03;100926.17;1816854;78;25298;-83
2022/12/27 10:27:24;;;;;;;21.23;8.58;;;;;;;5.60;92.74;100924.97;1822591;78;25625;-83
2022/12/27 10:29:57;;;;;;;12.40;6.00;;;;;;;5.62;91.79;100940.27;1809315;78;26061;-82
2022/12/27 10:32:27;;;;;;;13.35;5.35;;;;;;;5.67;91.89;100942.47;1811497;78;28681;-85
2022/12/27 10:35:00;;;;;;;14.53;5.95;;;;;;;5.66;90.56;100941.65;1810177;78;25856;-83
2022/12/27 10:37:27;;;;;;;9.70;4.83;;;;;;;5.64;89.32;100949.42;1814739;78;25941;-82
2022/12/27 10:39:56;;;;;;;18.65;8.25;;;;;;;5.58;88.81;100935.40;1820596;78;25836;-85
2022/12/27 10:42:40;;;;;;;25.05;10.70;;;;;;;5.55;89.09;100940.50;1815153;78;25756;-83
2022/12/27 10:45:38;;;;;;;39.25;17.52;;;;;;;5.54;88.38;100944.12;1816172;78;27477;-82
2022/12/27 10:48:21;;;;;;;30.85;13.45;;;;;;;5.51;88.65;100947.09;1813537;78;25860;-81
2022/12/27 10:51:02;;;;;;;17.25;8.00;;;;;;;5.50;88.81;100937.44;1812681;78;26150;-81
2022/12/27 10:53:40;;;;;;;;;;;;;;;5.49;88.67;100937.92;1809746;78;26013;-81
2022/12/27 10:56:18;;;;;;;19.25;8.70;;;;;;;5.44;88.45;100932.71;1818118;78;25822;-84
2022/12/27 10:58:48;;;;;;;14.78;6.78;;;;;;;5.35;88.27;100939.73;1824399;78;27468;-82
2022/12/27 11:01:28;;;;;;;14.38;6.15;;;;;;;5.33;87.98;100945.69;1806837;78;26322;-82
2022/12/27 11:04:21;;;;;;;12.40;5.72;;;;;;;5.31;88.06;100947.65;1816541;78;25305;-82
2022/12/27 11:07:04;;;;;;;12.30;4.78;;;;;;;5.32;88.39;100948.50;1818296;78;25694;-87
2022/12/27 11:09:35;;;;;;;9.68;3.60;;;;;;;5.28;86.20;100941.80;1841339;76;25838;-82
2022/12/27 11:12:16;;;;;;;16.97;4.58;;;;;;;5.24;86.32;100951.85;1808542;78;28642;-81
2022/12/27 11:15:02;;;;;;;12.80;5.03;;;;;;;5.26;86.77;100951.73;1803089;78;25960;-80
2022/12/27 11:17:44;;;;;;;24.67;9.85;;;;;;;5.29;87.55;100951.42;1804133;78;25773;-82
2022/12/27 11:20:22;;;;;;;18.32;7.70;;;;;;;5.30;87.34;100954.44;1812133;78;25820;-81
2022/12/27 11:23:09;;;;;;;12.73;7.30;;;;;;;5.30;86.62;100959.75;1848361;76;25235;-80
2022/12/27 11:25:54;;;;;;;19.15;7.65;;;;;;;5.31;87.03;100962.26;1806195;78;27447;-80
2022/12/27 11:28:56;;;;;;;12.43;6.30;;;;;;;5.34;86.27;100963.80;1786111;79;25883;-81
2022/12/27 11:31:37;;;;;;;19.37;9.28;;;;;;;5.34;86.64;100969.11;1808175;78;25868;-80
2022/12/27 11:34:27;;;;;;;19.20;7.47;;;;;;;5.33;86.45;100956.80;1790513;78;25425;-81
2022/12/27 11:37:11;;;;;;;14.00;5.50;;;;;;;5.33;87.24;100977.56;1815235;78;26321;-79
2022/12/27 11:39:54;;;;;;;12.68;4.83;;;;;;;5.33;87.24;100977.56;1813776;78;27546;-79
2022/12/27 11:42:31;;;;;;;14.20;4.42;;;;;;;5.29;86.78;100982.81;1801023;78;25891;-77
2022/12/27 11:45:18;;;;;;;8.38;5.33;;;;;;;5.26;87.10;100989.73;1810560;78;25984;-80
2022/12/27 11:47:57;;;;;;;14.95;6.45;;;;;;;5.24;87.01;100987.70;1824088;78;25867;-82
2022/12/27 11:50:31;;;;;;;14.70;7.20;;;;;;;5.22;87.21;101004.27;1813924;78;25770;-80
2022/12/27 11:53:37;;;;;;;10.70;4.92;;;;;;;5.21;86.96;100999.96;1807451;78;28300;-79
2022/12/27 11:56:26;;;;;;;11.43;4.35;;;;;;;5.21;86.32;101004.43;1786927;79;26341;-80
2022/12/27 11:59:28;;;;;;;25.02;10.20;;;;;;;5.12;86.03;100998.16;1807244;78;25793;-80
2022/12/27 12:02:14;;;;;;;;;;;;;;;5.08;86.25;101007.38;1796419;79;26557;-79
2022/12/27 12:05:05;;;;;;;18.87;10.60;;;;;;;5.05;86.60;101008.98;1799510;79;26396;-80
2022/12/27 12:08:02;;;;;;;17.20;8.68;;;;;;;5.02;86.35;100997.34;1808712;78;27533;-80
2022/12/27 12:11:00;;;;;;;11.53;7.72;;;;;;;4.99;86.62;101006.05;1791505;79;25795;-79
2022/12/27 12:13:54;;;;;;;11.90;6.60;;;;;;;4.99;86.70;101001.59;1800194;78;25533;-82
2022/12/27 12:16:32;;;;;;;19.42;8.30;;;;;;;4.98;86.88;101003.06;1804253;78;26365;-80
2022/12/27 12:19:13;;;;;;;15.53;7.30;;;;;;;4.97;86.96;100999.56;1812620;78;25956;-80
2022/12/27 12:22:13;;;;;;;;;;;;;;;4.96;87.07;101007.16;1807524;79;27534;-79
2022/12/27 12:25:14;;;;;;;18.57;10.95;;;;;;;4.94;87.12;101009.64;1786089;79;25902;-79
2022/12/27 12:27:54;;;;;;;20.32;10.32;;;;;;;4.92;87.63;101009.76;1797115;78;26454;-75
2022/12/27 12:30:44;;;;;;;14.75;8.43;;;;;;;4.94;87.88;101024.23;1775060;79;25842;-75
2022/12/27 12:33:48;;;;;;;16.40;6.53;;;;;;;4.95;88.19;101023.24;1768816;79;26803;-88
2022/12/27 12:36:44;;;;;;;16.25;6.60;;;;;;;4.98;88.33;101015.86;1788907;79;27459;-79
2022/12/27 12:39:55;;;;;;;20.32;7.53;;;;;;;4.99;88.33;101019.33;1789073;79;25964;-77
2022/12/27 12:43:08;;;;;;;16.48;7.12;;;;;;;4.99;88.51;101014.02;1799243;79;25843;-79
2022/12/27 12:45:56;;;;;;;14.98;6.75;;;;;;;4.97;88.48;101015.98;1783959;78;25510;-78
2022/12/27 12:49:06;;;;;;;18.48;9.08;;;;;;;4.96;88.69;101009.82;1737318;81;25335;-85
2022/12/27 12:52:04;;;;;;;23.47;10.82;;;;;;;4.95;88.66;101008.64;1713140;81;27642;-85
2022/12/27 12:54:52;;;;;;;12.37;7.25;;;;;;;4.95;88.95;101007.31;1711308;81;26542;-83
2022/12/27 12:57:44;;;;;;;18.82;7.75;;;;;;;4.96;89.08;101010.34;1725765;81;25304;-83
2022/12/27 13:00:31;;;;;;;15.28;7.25;;;;;;;4.95;89.27;101015.28;1762104;80;26552;-81
2022/12/27 13:03:45;;;;;;;16.48;7.00;;;;;;;4.97;89.33;101019.95;1722774;81;26396;-82
2022/12/27 13:06:22;;;;;;;13.22;6.78;;;;;;;4.97;89.41;101019.95;1731799;81;27464;-83
2022/12/27 13:09:03;;;;;;;17.10;8.48;;;;;;;4.96;89.61;101029.73;1730163;81;25540;-81
2022/12/27 13:12:04;;;;;;;21.17;8.13;;;;;;;4.95;89.42;101033.37;1744255;81;26468;-83
2022/12/27 13:14:41;;;;;;;19.32;8.60;;;;;;;4.96;89.70;101027.08;1735213;80;26527;-82
2022/12/27 13:17:18;;;;;;;19.48;8.68;;;;;;;4.97;89.61;101037.21;1736434;80;26125;-81
2022/12/27 13:20:02;;;;;;;24.67;9.38;;;;;;;4.97;89.74;101035.41;1726067;81;27443;-82
2022/12/27 13:22:45;;;;;;;17.62;9.93;;;;;;;4.95;89.56;101041.34;1738231;81;25836;-76
2022/12/27 13:26:00;;;;;;;31.07;18.20;;;;;;;4.95;89.83;101048.46;1714903;81;26609;-75
2022/12/27 13:29:22;;;;;;;21.25;12.00;;;;;;;4.94;89.84;101057.42;1724194;81;26244;-75
2022/12/27 13:32:06;;;;;;;16.17;9.18;;;;;;;4.97;90.05;101058.45;1732661;81;25845;-76
2022/12/27 13:35:08;;;;;;;16.77;7.85;;;;;;;4.98;90.00;101059.66;1727192;81;28293;-75
2022/12/27 13:38:00;;;;;;;13.78;8.15;;;;;;;4.99;89.83;101062.65;1734125;81;26000;-76
2022/12/27 13:40:37;;;;;;;18.45;8.78;;;;;;;4.98;89.87;101063.64;1741214;81;25885;-76
2022/12/27 13:43:51;;;;;;;11.25;7.60;;;;;;;4.99;89.94;101066.63;1746784;81;25998;-85